createdAt,value
2023-04-05T03:59:01.050Z,1018.23
2023-04-05T04:00:00.955Z,1018.22
2023-04-05T04:01:00.939Z,1018.24
2023-04-05T04:02:01.017Z,1018.23
2023-04-05T04:03:01.023Z,1018.26
2023-04-05T04:04:00.955Z,1018.22
2023-04-05T04:05:00.965Z,1018.22
2023-04-05T04:06:00.942Z,1018.22
2023-04-05T04:07:00.901Z,1018.22
2023-04-05T04:08:00.902Z,1018.21
2023-04-05T04:09:00.911Z,1018.21
2023-04-05T04:10:00.877Z,1018.21
2023-04-05T04:11:00.879Z,1018.20
2023-04-05T04:12:00.876Z,1018.19
2023-04-05T04:13:00.860Z,1018.17
2023-04-05T04:14:00.869Z,1018.21
2023-04-05T04:15:00.859Z,1018.17
2023-04-05T04:16:00.896Z,1018.21
2023-04-05T04:17:00.837Z,1018.18
2023-04-05T04:18:00.890Z,1018.17
2023-04-05T04:19:00.827Z,1018.18
2023-04-05T04:20:00.835Z,1018.23
2023-04-05T04:21:00.827Z,1018.25
2023-04-05T04:22:00.819Z,1018.23
2023-04-05T04:23:00.812Z,1018.23
2023-04-05T04:24:00.883Z,1018.25
2023-04-05T04:25:00.807Z,1018.22
2023-04-05T04:26:00.824Z,1018.22
2023-04-05T04:27:00.794Z,1018.23
2023-04-05T04:28:00.790Z,1018.23
2023-04-05T04:29:00.776Z,1018.24
2023-04-05T04:30:00.789Z,1018.27
2023-04-05T04:31:00.818Z,1018.23
2023-04-05T04:32:00.810Z,1018.22
2023-04-05T04:33:00.853Z,1018.25
2023-04-05T04:34:00.776Z,1018.22
2023-04-05T04:35:00.761Z,1018.19
2023-04-05T04:36:00.796Z,1018.20
2023-04-05T04:37:00.870Z,1018.20
2023-04-05T04:38:00.760Z,1018.19
2023-04-05T04:39:00.750Z,1018.18
2023-04-05T04:40:00.741Z,1018.16
2023-04-05T04:41:00.756Z,1018.10
2023-04-05T04:42:00.723Z,1018.14
2023-04-05T04:43:00.728Z,1018.11
2023-04-05T04:44:00.739Z,1018.14
2023-04-05T04:45:00.722Z,1018.19
2023-04-05T04:46:00.730Z,1018.19
2023-04-05T04:47:00.731Z,1018.22
2023-04-05T04:48:00.713Z,1018.25
2023-04-05T04:49:00.704Z,1018.28
2023-04-05T04:50:00.703Z,1018.30
2023-04-05T04:51:00.702Z,1018.26
2023-04-05T04:52:00.680Z,1018.27
2023-04-05T04:53:00.687Z,1018.28
2023-04-05T04:54:00.691Z,1018.28
2023-04-05T04:55:00.672Z,1018.29
2023-04-05T04:56:00.664Z,1018.31
2023-04-05T04:57:00.670Z,1018.28
2023-04-05T04:58:00.663Z,1018.28
2023-04-05T04:59:00.690Z,1018.33
2023-04-05T05:00:00.645Z,1018.29
2023-04-05T05:01:00.656Z,1018.29
2023-04-05T05:02:00.647Z,1018.27
2023-04-05T05:03:00.681Z,1018.25
2023-04-05T05:04:00.716Z,1018.24
2023-04-05T05:05:00.637Z,1018.23
2023-04-05T05:06:00.628Z,1018.23
2023-04-05T05:07:00.619Z,1018.28
2023-04-05T05:08:00.625Z,1018.26
2023-04-05T05:09:00.633Z,1018.28
2023-04-05T05:10:00.640Z,1018.25
2023-04-05T05:11:00.610Z,1018.30
2023-04-05T05:12:00.617Z,1018.28
2023-04-05T05:13:00.593Z,1018.28
2023-04-05T05:14:00.592Z,1018.27
2023-04-05T05:15:00.617Z,1018.23
2023-04-05T05:16:00.613Z,1018.22
2023-04-05T05:17:00.661Z,1018.24
2023-04-05T05:18:00.662Z,1018.27
2023-04-05T05:19:00.612Z,1018.26
2023-04-05T05:20:00.563Z,1018.26
2023-04-05T05:21:00.566Z,1018.30
2023-04-05T05:22:00.560Z,1018.28
2023-04-05T05:23:00.564Z,1018.31
2023-04-05T05:24:00.565Z,1018.31
2023-04-05T05:25:00.549Z,1018.29
2023-04-05T05:26:00.548Z,1018.27
2023-04-05T05:27:00.551Z,1018.27
2023-04-05T05:28:00.557Z,1018.28
2023-04-05T05:29:00.529Z,1018.31
2023-04-05T05:30:00.521Z,1018.27
2023-04-05T05:31:00.553Z,1018.27
2023-04-05T05:32:00.554Z,1018.28
2023-04-05T05:33:00.542Z,1018.22
2023-04-05T05:34:00.515Z,1018.24
2023-04-05T05:35:00.521Z,1018.20
2023-04-05T05:36:00.545Z,1018.23
2023-04-05T05:37:00.501Z,1018.25
2023-04-05T05:38:00.499Z,1018.25
2023-04-05T05:39:00.485Z,1018.22
2023-04-05T05:40:00.513Z,1018.23
2023-04-05T05:41:00.486Z,1018.26
2023-04-05T05:42:00.469Z,1018.26
2023-04-05T05:43:00.484Z,1018.27
2023-04-05T05:44:00.470Z,1018.27
2023-04-05T05:45:00.463Z,1018.30
2023-04-05T05:46:00.519Z,1018.30
2023-04-05T05:47:00.467Z,1018.29
2023-04-05T05:48:00.475Z,1018.28
2023-04-05T05:49:00.458Z,1018.24
2023-04-05T05:50:00.444Z,1018.23
2023-04-05T05:51:00.458Z,1018.25
2023-04-05T05:52:00.442Z,1018.26
2023-04-05T05:53:01.861Z,1018.29
2023-04-05T05:54:00.426Z,1018.21
2023-04-05T05:55:00.463Z,1018.23
2023-04-05T05:56:00.422Z,1018.26
2023-04-05T05:57:00.453Z,1018.22
2023-04-05T05:58:00.413Z,1018.28
2023-04-05T05:59:00.460Z,1018.26
2023-04-05T06:00:00.408Z,1018.26
2023-04-05T06:01:00.433Z,1018.26
2023-04-05T06:02:00.424Z,1018.24
2023-04-05T06:03:00.449Z,1018.26
2023-04-05T06:04:00.522Z,1018.28
2023-04-05T06:05:00.468Z,1018.25
2023-04-05T06:06:00.400Z,1018.33
2023-04-05T06:07:00.402Z,1018.33
2023-04-05T06:08:00.381Z,1018.31
2023-04-05T06:09:00.374Z,1018.32
2023-04-05T06:10:00.379Z,1018.34
2023-04-05T06:11:00.364Z,1018.33
2023-04-05T06:12:00.354Z,1018.40
2023-04-05T06:13:00.359Z,1018.39
2023-04-05T06:14:00.369Z,1018.39
2023-04-05T06:15:00.383Z,1018.42
2023-04-05T06:16:00.379Z,1018.38
2023-04-05T06:17:00.381Z,1018.38
2023-04-05T06:18:00.386Z,1018.34
2023-04-05T06:19:00.352Z,1018.37
2023-04-05T06:20:00.393Z,1018.36
2023-04-05T06:21:00.321Z,1018.31
2023-04-05T06:22:00.342Z,1018.32
2023-04-05T06:23:00.323Z,1018.31
2023-04-05T06:24:00.314Z,1018.32
2023-04-05T06:25:00.320Z,1018.32
2023-04-05T06:26:00.306Z,1018.27
2023-04-05T06:27:00.339Z,1018.31
2023-04-05T06:28:00.298Z,1018.29
2023-04-05T06:29:00.294Z,1018.30
2023-04-05T06:30:00.382Z,1018.26
2023-04-05T06:31:00.291Z,1018.23
2023-04-05T06:32:00.387Z,1018.24
2023-04-05T06:33:00.320Z,1018.23
2023-04-05T06:34:00.288Z,1018.22
2023-04-05T06:35:00.506Z,1018.24
2023-04-05T06:36:00.296Z,1018.21
2023-04-05T06:37:00.277Z,1018.19
2023-04-05T06:38:00.271Z,1018.18
2023-04-05T06:39:00.270Z,1018.18
2023-04-05T06:40:00.261Z,1018.11
2023-04-05T06:41:00.350Z,1018.12
2023-04-05T06:42:00.256Z,1018.08
2023-04-05T06:43:00.284Z,1018.12
2023-04-05T06:44:00.335Z,1018.11
2023-04-05T06:45:00.287Z,1018.11
2023-04-05T06:46:00.375Z,1018.10
2023-04-05T06:47:00.336Z,1018.08
2023-04-05T06:48:00.355Z,1018.09
2023-04-05T06:49:02.394Z,1018.07
2023-04-05T06:50:00.301Z,1018.07
2023-04-05T06:51:00.324Z,1018.08
2023-04-05T06:52:00.328Z,1018.12
2023-04-05T06:53:00.223Z,1018.11
2023-04-05T06:54:00.208Z,1018.10
2023-04-05T06:55:00.222Z,1018.10
2023-04-05T06:56:00.204Z,1018.06
2023-04-05T06:57:01.823Z,1018.07
2023-04-05T06:58:00.246Z,1018.07
2023-04-05T06:59:00.368Z,1018.07
2023-04-05T07:00:00.248Z,1018.05
2023-04-05T07:01:00.220Z,1018.03
2023-04-05T07:02:00.194Z,1018.02
2023-04-05T07:03:00.243Z,1018.06
2023-04-05T07:04:00.238Z,1018.03
2023-04-05T07:05:00.184Z,1018.00
2023-04-05T07:06:00.252Z,1018.01
2023-04-05T07:07:00.176Z,1017.99
2023-04-05T07:08:00.313Z,1018.05
2023-04-05T07:09:00.179Z,1018.03
2023-04-05T07:10:00.197Z,1018.03
2023-04-05T07:11:00.176Z,1018.01
2023-04-05T07:12:00.157Z,1018.00
2023-04-05T07:13:00.166Z,1018.00
2023-04-05T07:14:00.189Z,1017.95
2023-04-05T07:15:00.157Z,1017.96
2023-04-05T07:16:00.207Z,1017.94
2023-04-05T07:17:00.154Z,1017.94
2023-04-05T07:18:00.257Z,1017.96
2023-04-05T07:19:00.174Z,1017.95
2023-04-05T07:20:00.169Z,1018.02
2023-04-05T07:21:00.266Z,1018.00
2023-04-05T07:22:00.176Z,1018.02
2023-04-05T07:23:00.140Z,1018.01
2023-04-05T07:24:00.140Z,1018.01
2023-04-05T07:25:00.164Z,1018.01
2023-04-05T07:26:00.304Z,1018.03
2023-04-05T07:27:00.146Z,1018.00
2023-04-05T07:28:00.137Z,1017.98
2023-04-05T07:29:00.158Z,1017.99
2023-04-05T07:30:00.145Z,1017.97
2023-04-05T07:31:00.149Z,1017.97
2023-04-05T07:32:00.173Z,1017.99
2023-04-05T07:33:00.177Z,1018.01
2023-04-05T07:34:00.159Z,1018.02
2023-04-05T07:35:00.178Z,1017.98
2023-04-05T07:36:00.163Z,1018.01
2023-04-05T07:37:00.114Z,1018.03
2023-04-05T07:38:00.139Z,1017.99
2023-04-05T07:39:00.344Z,1018.06
2023-04-05T07:40:00.170Z,1018.03
2023-04-05T07:41:00.127Z,1018.03
2023-04-05T07:42:00.109Z,1018.02
2023-04-05T07:43:00.122Z,1018.05
2023-04-05T07:44:00.171Z,1018.04
2023-04-05T07:45:00.134Z,1018.03
2023-04-05T07:46:00.208Z,1018.04
2023-04-05T07:47:00.117Z,1018.03
2023-04-05T07:48:00.183Z,1018.02
2023-04-05T07:49:00.119Z,1018.01
2023-04-05T07:50:00.150Z,1018.05
2023-04-05T07:51:00.139Z,1018.04
2023-04-05T07:52:00.091Z,1018.01
2023-04-05T07:53:00.097Z,1018.02
2023-04-05T07:54:01.860Z,1018.00
2023-04-05T07:55:00.122Z,1018.00
2023-04-05T07:56:00.132Z,1018.00
2023-04-05T07:57:00.121Z,1017.96
2023-04-05T07:58:00.129Z,1017.97
2023-04-05T07:59:00.263Z,1017.93
2023-04-05T08:00:00.112Z,1017.95
2023-04-05T08:01:00.109Z,1017.92
2023-04-05T08:02:08.291Z,1017.95
2023-04-05T08:03:02.144Z,1017.99
2023-04-05T08:04:00.191Z,1017.98
2023-04-05T08:05:00.272Z,1017.95
2023-04-05T08:08:32.578Z,1017.97
2023-04-05T08:09:32.585Z,1017.94
2023-04-05T08:10:32.576Z,1017.97
2023-04-05T08:11:32.570Z,1017.97
2023-04-05T08:12:32.592Z,1018.00
2023-04-05T08:13:32.561Z,1017.96
2023-04-05T08:14:32.595Z,1017.97
2023-04-05T08:15:32.567Z,1017.98
2023-04-05T08:16:32.640Z,1018.03
2023-04-05T08:17:32.576Z,1017.97
2023-04-05T08:18:32.584Z,1017.97
2023-04-05T08:19:32.569Z,1017.99
2023-04-05T08:20:32.585Z,1017.94
2023-04-05T08:21:32.583Z,1017.93
2023-04-05T08:22:32.566Z,1017.92
2023-04-05T08:23:32.580Z,1017.91
2023-04-05T08:24:32.563Z,1017.87
2023-04-05T08:25:32.571Z,1017.88
2023-04-05T08:26:32.554Z,1017.88
2023-04-05T08:27:32.546Z,1017.89
2023-04-05T08:28:32.566Z,1017.92
2023-04-05T08:29:32.554Z,1017.90
2023-04-05T08:30:32.561Z,1017.92
2023-04-05T08:31:32.584Z,1017.91
2023-04-05T08:32:32.593Z,1017.92
2023-04-05T08:33:32.537Z,1017.91
2023-04-05T08:34:32.564Z,1017.87
2023-04-05T08:35:32.581Z,1017.86
2023-04-05T08:36:32.552Z,1017.86
2023-04-05T08:37:32.533Z,1017.84
2023-04-05T08:38:32.564Z,1017.82
2023-04-05T08:39:32.533Z,1017.83
2023-04-05T08:40:32.544Z,1017.86
2023-04-05T08:41:32.538Z,1017.83
2023-04-05T08:42:32.555Z,1017.87
2023-04-05T08:43:32.545Z,1017.87
2023-04-05T08:44:32.556Z,1017.91
2023-04-05T08:45:32.562Z,1017.85
2023-04-05T08:46:32.565Z,1017.86
2023-04-05T08:47:32.573Z,1017.87
2023-04-05T08:48:32.533Z,1017.86
2023-04-05T08:49:32.538Z,1017.91
2023-04-05T08:50:32.523Z,1017.93
2023-04-05T08:51:32.526Z,1017.90
2023-04-05T08:52:32.542Z,1017.90
2023-04-05T08:53:32.533Z,1017.87
2023-04-05T08:54:32.540Z,1017.88
2023-04-05T08:55:32.532Z,1017.82
2023-04-05T08:56:32.536Z,1017.87
2023-04-05T08:57:32.527Z,1017.89
2023-04-05T08:58:32.528Z,1017.83
2023-04-05T08:59:32.753Z,1017.84
2023-04-05T09:00:32.513Z,1017.82
2023-04-05T09:01:32.543Z,1017.81
2023-04-05T09:02:32.664Z,1017.80
2023-04-05T09:03:32.643Z,1017.84
2023-04-05T09:04:32.517Z,1017.82
2023-04-05T09:05:32.521Z,1017.80
2023-04-05T09:06:32.514Z,1017.79
2023-04-05T09:07:32.556Z,1017.82
2023-04-05T09:08:32.538Z,1017.81
2023-04-05T09:09:32.517Z,1017.75
2023-04-05T09:10:32.516Z,1017.77
2023-04-05T09:11:32.549Z,1017.77
2023-04-05T09:12:32.542Z,1017.77
2023-04-05T09:13:32.509Z,1017.77
2023-04-05T09:14:32.504Z,1017.79
2023-04-05T09:15:32.503Z,1017.76
2023-04-05T09:16:32.526Z,1017.72
2023-04-05T09:17:32.676Z,1017.76
2023-04-05T09:18:32.599Z,1017.81
2023-04-05T09:19:32.504Z,1017.78
2023-04-05T09:20:32.504Z,1017.77
2023-04-05T09:21:32.504Z,1017.70
2023-04-05T09:22:32.539Z,1017.74
2023-04-05T09:23:32.530Z,1017.71
2023-04-05T09:24:32.506Z,1017.67
2023-04-05T09:25:32.518Z,1017.70
2023-04-05T09:26:32.633Z,1017.78
2023-04-05T09:27:32.526Z,1017.72
2023-04-05T09:28:32.512Z,1017.69
2023-04-05T09:29:32.496Z,1017.74
2023-04-05T09:30:32.502Z,1017.72
2023-04-05T09:31:32.559Z,1017.70
2023-04-05T09:32:32.538Z,1017.67
2023-04-05T09:33:32.518Z,1017.70
2023-04-05T09:34:32.552Z,1017.68
2023-04-05T09:35:32.529Z,1017.70
2023-04-05T09:36:32.498Z,1017.69
2023-04-05T09:37:32.499Z,1017.68
2023-04-05T09:38:32.498Z,1017.69
2023-04-05T09:39:32.522Z,1017.68
2023-04-05T09:40:32.498Z,1017.65
2023-04-05T09:41:32.534Z,1017.67
2023-04-05T09:42:32.494Z,1017.67
2023-04-05T09:43:32.499Z,1017.66
2023-04-05T09:44:32.499Z,1017.64
2023-04-05T09:45:32.511Z,1017.63
2023-04-05T09:46:32.585Z,1017.66
2023-04-05T09:47:32.562Z,1017.67
2023-04-05T09:48:32.491Z,1017.64
2023-04-05T09:49:32.511Z,1017.63
2023-04-05T09:50:32.535Z,1017.71
2023-04-05T09:51:32.539Z,1017.72
2023-04-05T09:52:32.498Z,1017.68
2023-04-05T09:53:32.494Z,1017.64
2023-04-05T09:54:32.493Z,1017.62
2023-04-05T09:55:32.516Z,1017.65
2023-04-05T09:56:32.513Z,1017.61
2023-04-05T09:57:32.497Z,1017.59
2023-04-05T09:58:32.495Z,1017.63
2023-04-05T09:59:32.599Z,1017.62
2023-04-05T10:00:32.533Z,1017.56
2023-04-05T10:01:32.557Z,1017.60
2023-04-05T10:13:19.191Z,1017.45
2023-04-05T10:14:19.267Z,1017.46
2023-04-05T10:15:19.116Z,1017.41
2023-04-05T10:16:19.141Z,1017.39
2023-04-05T10:17:19.145Z,1017.39
2023-04-05T10:18:19.145Z,1017.41
2023-04-05T10:19:19.104Z,1017.44
2023-04-05T10:20:19.197Z,1017.39
2023-04-05T10:21:19.111Z,1017.42
2023-04-05T10:22:19.102Z,1017.42
2023-04-05T10:23:19.094Z,1017.38
2023-04-05T10:24:19.107Z,1017.37
2023-04-05T10:25:19.109Z,1017.35
2023-04-05T10:26:19.152Z,1017.35
2023-04-05T10:27:19.109Z,1017.37
2023-04-05T10:28:19.108Z,1017.34
2023-04-05T10:29:19.170Z,1017.36
2023-04-05T10:30:19.108Z,1017.32
2023-04-05T10:31:30.580Z,1017.34
2023-04-05T10:32:19.159Z,1017.36
2023-04-05T10:33:19.150Z,1017.36
2023-04-05T10:34:19.092Z,1017.34
2023-04-05T10:35:19.094Z,1017.36
2023-04-05T10:36:19.140Z,1017.34
2023-04-05T10:37:19.102Z,1017.34
2023-04-05T10:38:19.107Z,1017.36
2023-04-05T10:39:19.137Z,1017.40
2023-04-05T10:40:19.111Z,1017.41
2023-04-05T10:41:19.128Z,1017.40
2023-04-05T10:42:19.129Z,1017.41
2023-04-05T10:43:19.107Z,1017.41
2023-04-05T10:44:26.161Z,1017.39
2023-04-05T10:45:19.143Z,1017.38
2023-04-05T10:46:19.154Z,1017.34
2023-04-05T10:47:19.213Z,1017.32
2023-04-05T10:48:19.112Z,1017.30
2023-04-05T10:49:19.162Z,1017.25
2023-04-05T10:50:19.184Z,1017.22
2023-04-05T10:51:19.115Z,1017.25
2023-04-05T10:52:19.164Z,1017.25
2023-04-05T10:53:19.172Z,1017.22
2023-04-05T10:54:19.119Z,1017.22
2023-04-05T10:55:19.182Z,1017.22
2023-04-05T10:56:19.140Z,1017.19
2023-04-05T10:57:19.170Z,1017.22
2023-04-05T10:59:19.205Z,1017.17
2023-04-05T11:00:19.196Z,1017.15
2023-04-05T11:01:19.181Z,1017.12
2023-04-05T11:02:19.147Z,1017.10
2023-04-05T11:03:19.222Z,1017.07
2023-04-05T11:04:19.170Z,1017.07
2023-04-05T11:05:19.204Z,1017.04
2023-04-05T11:06:19.153Z,1017.04
2023-04-05T11:07:19.147Z,1017.01
2023-04-05T11:08:19.153Z,1017.04
2023-04-05T11:09:19.160Z,1017.04
2023-04-05T11:10:19.169Z,1017.04
2023-04-05T11:11:19.189Z,1017.02
2023-04-05T11:12:19.166Z,1017.01
2023-04-05T11:13:19.165Z,1017.02
2023-04-05T11:14:19.183Z,1017.00
2023-04-05T11:15:19.166Z,1017.02
2023-04-05T11:16:19.213Z,1016.98
2023-04-05T11:17:19.183Z,1017.03
2023-04-05T11:18:19.184Z,1016.98
2023-04-05T11:19:19.174Z,1016.98
2023-04-05T11:20:19.203Z,1016.95
2023-04-05T11:21:19.171Z,1016.95
2023-04-05T11:22:19.176Z,1016.93
2023-04-05T11:23:19.213Z,1016.90
2023-04-05T11:24:19.191Z,1016.86
2023-04-05T11:25:19.193Z,1016.85
2023-04-05T11:26:19.183Z,1016.87
2023-04-05T11:27:19.191Z,1016.86
2023-04-05T11:28:19.215Z,1016.83
2023-04-05T11:29:19.193Z,1016.79
2023-04-05T11:30:19.196Z,1016.85
2023-04-05T11:31:19.502Z,1016.86
2023-04-05T11:32:19.203Z,1016.83
2023-04-05T11:33:19.241Z,1016.83
2023-04-05T11:34:19.214Z,1016.81
2023-04-05T11:35:19.223Z,1016.82
2023-04-05T11:36:19.227Z,1016.80
2023-04-05T11:37:19.214Z,1016.87
2023-04-05T11:38:19.222Z,1016.84
2023-04-05T11:39:19.273Z,1016.87
2023-04-05T11:40:19.237Z,1016.79
2023-04-05T11:41:19.232Z,1016.78
2023-04-05T11:42:19.235Z,1016.79
2023-04-05T11:43:19.243Z,1016.73
2023-04-05T11:44:19.245Z,1016.78
2023-04-05T11:45:19.243Z,1016.79
2023-04-05T11:46:19.403Z,1016.77
2023-04-05T11:47:19.262Z,1016.77
2023-04-05T11:48:19.254Z,1016.72
2023-04-05T11:49:19.329Z,1016.70
2023-04-05T11:50:19.252Z,1016.70
2023-04-05T11:51:19.262Z,1016.68
2023-04-05T11:52:19.266Z,1016.66
2023-04-05T11:53:19.271Z,1016.66
2023-04-05T11:54:19.285Z,1016.63
2023-04-05T11:55:19.274Z,1016.63
2023-04-05T11:56:19.291Z,1016.55
2023-04-05T11:57:19.281Z,1016.57
2023-04-05T11:58:19.336Z,1016.58
2023-04-05T11:59:19.374Z,1016.58
2023-04-05T12:00:19.292Z,1016.51
2023-04-05T12:01:21.013Z,1016.51
2023-04-05T12:02:19.310Z,1016.50
2023-04-05T12:03:19.388Z,1016.47
2023-04-05T12:04:19.336Z,1016.47
2023-04-05T12:05:19.492Z,1016.48
2023-04-05T12:06:19.318Z,1016.48
2023-04-05T12:07:19.325Z,1016.48
2023-04-05T12:08:19.333Z,1016.47
2023-04-05T12:09:19.339Z,1016.44
2023-04-05T12:10:19.354Z,1016.49
2023-04-05T12:11:19.354Z,1016.42
2023-04-05T12:12:19.346Z,1016.46
2023-04-05T12:13:19.350Z,1016.48
2023-04-05T12:14:19.356Z,1016.47
2023-04-05T12:15:19.462Z,1016.44
2023-04-05T12:16:19.454Z,1016.44
2023-04-05T12:17:19.368Z,1016.44
2023-04-05T12:18:19.371Z,1016.47
2023-04-05T12:19:19.415Z,1016.43
2023-04-05T12:20:19.424Z,1016.49
2023-04-05T12:21:19.420Z,1016.43
2023-04-05T12:22:19.404Z,1016.38
2023-04-05T12:23:19.389Z,1016.41
2023-04-05T12:24:19.423Z,1016.36
2023-04-05T12:25:19.416Z,1016.36
2023-04-05T12:26:19.415Z,1016.36
2023-04-05T12:27:19.442Z,1016.38
2023-04-05T12:28:19.419Z,1016.39
2023-04-05T12:29:19.426Z,1016.36
2023-04-05T12:30:19.487Z,1016.35
2023-04-05T12:31:19.439Z,1016.35
2023-04-05T12:32:21.093Z,1016.33
2023-04-05T12:33:19.449Z,1016.35
2023-04-05T12:34:19.460Z,1016.33
2023-04-05T12:35:19.472Z,1016.26
2023-04-05T12:36:19.480Z,1016.27
2023-04-05T12:37:19.514Z,1016.27
2023-04-05T12:38:19.489Z,1016.27
2023-04-05T12:39:19.490Z,1016.27
2023-04-05T12:40:19.516Z,1016.20
2023-04-05T12:41:19.488Z,1016.20
2023-04-05T12:42:19.503Z,1016.16
2023-04-05T12:43:19.530Z,1016.18
2023-04-05T12:45:52.064Z,1016.13
2023-04-05T12:46:52.047Z,1016.14
2023-04-05T12:47:52.112Z,1016.15
2023-04-05T12:48:52.064Z,1016.15
2023-04-05T12:49:52.065Z,1016.11
2023-04-05T12:50:52.126Z,1016.11
2023-04-05T12:51:52.080Z,1016.11
2023-04-05T12:52:52.115Z,1016.09
2023-04-05T12:53:52.086Z,1016.11
2023-04-05T12:54:52.101Z,1016.08
2023-04-05T12:55:52.103Z,1016.06
2023-04-05T12:56:52.137Z,1016.04
2023-04-05T12:57:52.128Z,1016.01
2023-04-05T12:58:52.147Z,1015.97
2023-04-05T12:59:52.117Z,1015.96
2023-04-05T13:00:52.148Z,1016.00
2023-04-05T13:01:52.463Z,1015.98
2023-04-05T13:02:52.245Z,1015.98
2023-04-05T13:03:54.918Z,1015.93
2023-04-05T13:04:52.170Z,1015.98
2023-04-05T13:05:52.161Z,1015.98
2023-04-05T13:06:52.164Z,1015.94
2023-04-05T13:07:52.176Z,1015.91
2023-04-05T13:08:52.209Z,1015.94
2023-04-05T13:09:52.214Z,1015.91
2023-04-05T13:10:52.195Z,1015.95
2023-04-05T13:11:52.201Z,1015.92
2023-04-05T13:12:52.218Z,1015.94
2023-04-05T13:13:52.231Z,1015.92
2023-04-05T13:14:52.228Z,1015.92
2023-04-05T13:15:52.526Z,1015.91
2023-04-05T13:16:52.236Z,1015.92
2023-04-05T13:17:52.334Z,1015.92
2023-04-05T13:18:52.298Z,1015.91
2023-04-05T13:19:52.272Z,1015.92
2023-04-05T13:20:52.266Z,1015.89
2023-04-05T13:21:52.277Z,1015.90
2023-04-05T13:22:52.293Z,1015.89
2023-04-05T13:23:52.305Z,1015.93
2023-04-05T13:24:52.327Z,1015.89
2023-04-05T13:25:52.301Z,1015.90
2023-04-05T13:26:52.308Z,1015.89
2023-04-05T13:27:52.319Z,1015.86
2023-04-05T13:28:52.354Z,1015.84
2023-04-05T13:29:52.395Z,1015.86
2023-04-05T13:30:54.131Z,1015.81
2023-04-05T13:31:52.381Z,1015.84
2023-04-05T13:32:52.404Z,1015.79
2023-04-05T13:33:52.356Z,1015.83
2023-04-05T13:34:52.375Z,1015.79
2023-04-05T13:35:52.403Z,1015.79
2023-04-05T13:36:52.378Z,1015.79
2023-04-05T13:37:52.392Z,1015.80
2023-04-05T13:38:52.403Z,1015.77
2023-04-05T13:39:52.409Z,1015.79
2023-04-05T13:40:52.448Z,1015.78
2023-04-05T13:41:52.421Z,1015.74
2023-04-05T13:42:52.431Z,1015.70
2023-04-05T13:43:52.437Z,1015.71
2023-04-05T13:44:52.455Z,1015.67
2023-04-05T13:45:52.487Z,1015.63
2023-04-05T13:46:52.459Z,1015.70
2023-04-05T13:47:52.486Z,1015.64
2023-04-05T13:48:52.477Z,1015.62
2023-04-05T13:49:52.488Z,1015.61
2023-04-05T13:50:52.514Z,1015.63
2023-04-05T13:51:52.518Z,1015.60
2023-04-05T13:52:52.506Z,1015.59
2023-04-05T13:53:52.543Z,1015.59
2023-04-05T13:55:02.623Z,1015.58
2023-04-05T13:55:52.550Z,1015.56
2023-04-05T13:56:52.562Z,1015.55
2023-04-05T13:57:52.582Z,1015.55
2023-04-05T13:58:52.615Z,1015.52
2023-04-05T13:59:52.649Z,1015.53
2023-04-05T14:00:52.588Z,1015.54
2023-04-05T14:01:52.669Z,1015.53
2023-04-05T14:02:52.696Z,1015.48
2023-04-05T14:03:52.744Z,1015.48
2023-04-05T14:04:52.639Z,1015.49
2023-04-05T14:05:55.228Z,1015.44
2023-04-05T14:06:52.631Z,1015.43
2023-04-05T14:07:52.635Z,1015.44
2023-04-05T14:08:52.635Z,1015.43
2023-04-05T14:09:52.642Z,1015.39
2023-04-05T14:10:52.656Z,1015.36
2023-04-05T14:11:52.671Z,1015.39
2023-04-05T14:12:52.681Z,1015.38
2023-04-05T14:13:52.673Z,1015.39
2023-04-05T14:14:52.688Z,1015.37
2023-04-05T14:15:52.782Z,1015.35
2023-04-05T14:16:52.693Z,1015.33
2023-04-05T14:17:52.817Z,1015.31
2023-04-05T14:18:52.715Z,1015.34
2023-04-05T14:19:52.726Z,1015.31
2023-04-05T14:20:52.753Z,1015.31
2023-04-05T14:21:52.738Z,1015.33
2023-04-05T14:22:52.763Z,1015.28
2023-04-05T14:23:52.765Z,1015.28
2023-04-05T14:24:52.863Z,1015.20
2023-04-05T14:25:52.782Z,1015.23
2023-04-05T14:26:52.818Z,1015.20
2023-04-05T14:27:52.788Z,1015.15
2023-04-05T14:28:52.826Z,1015.15
2023-04-05T14:29:52.798Z,1015.13
2023-04-05T14:30:52.832Z,1015.13
2023-04-05T14:31:52.864Z,1015.14
2023-04-05T14:32:52.859Z,1015.15
2023-04-05T14:33:52.840Z,1015.13
2023-04-05T14:34:52.861Z,1015.10
2023-04-05T14:35:52.899Z,1015.09
2023-04-05T14:36:52.861Z,1015.06
2023-04-05T14:37:52.874Z,1015.05
2023-04-05T14:38:52.911Z,1015.06
2023-04-05T14:39:52.887Z,1015.04
2023-04-05T14:40:52.900Z,1015.07
2023-04-05T14:41:53.003Z,1015.00
2023-04-05T14:42:52.912Z,1015.01
2023-04-05T14:43:52.912Z,1015.01
2023-04-05T14:44:52.963Z,1015.01
2023-04-05T14:45:52.999Z,1014.99
2023-04-05T14:46:52.941Z,1014.95
2023-04-05T14:47:52.954Z,1014.96
2023-04-05T14:48:52.958Z,1014.96
2023-04-05T14:49:52.958Z,1014.98
2023-04-05T14:50:52.965Z,1014.95
2023-04-05T14:51:52.973Z,1014.98
2023-04-05T14:52:52.981Z,1014.99
2023-04-05T14:53:53.008Z,1014.98
2023-04-05T14:54:52.990Z,1014.97
2023-04-05T14:55:53.013Z,1014.95
2023-04-05T14:56:53.012Z,1014.92
2023-04-05T14:57:53.012Z,1014.91
2023-04-05T14:58:53.064Z,1014.94
2023-04-05T14:59:53.038Z,1014.94
2023-04-05T15:00:53.093Z,1014.91
2023-04-05T15:01:53.041Z,1014.94
2023-04-05T15:02:53.142Z,1014.92
2023-04-05T15:03:53.937Z,1014.89
2023-04-05T15:04:53.082Z,1014.89
2023-04-05T15:05:53.089Z,1014.82
2023-04-05T15:06:53.075Z,1014.85
2023-04-05T15:07:53.081Z,1014.85
2023-04-05T15:08:53.088Z,1014.82
2023-04-05T15:09:53.105Z,1014.80
2023-04-05T15:10:53.100Z,1014.82
2023-04-05T15:11:55.070Z,1014.82
2023-04-05T15:12:53.113Z,1014.81
2023-04-05T15:13:53.161Z,1014.78
2023-04-05T15:14:53.149Z,1014.80
2023-04-05T15:15:53.134Z,1014.78
2023-04-05T15:16:53.198Z,1014.78
2023-04-05T15:17:53.203Z,1014.78
2023-04-05T15:18:53.157Z,1014.75
2023-04-05T15:19:53.168Z,1014.72
2023-04-05T15:20:53.169Z,1014.79
2023-04-05T15:21:53.167Z,1014.79
2023-04-05T15:22:53.175Z,1014.79
2023-04-05T15:23:53.183Z,1014.79
2023-04-05T15:24:53.187Z,1014.81
2023-04-05T15:25:53.206Z,1014.78
2023-04-05T15:26:53.193Z,1014.80
2023-04-05T15:27:53.204Z,1014.76
2023-04-05T15:28:53.205Z,1014.77
2023-04-05T15:29:53.210Z,1014.77
2023-04-05T15:30:53.243Z,1014.74
2023-04-05T15:31:53.256Z,1014.77
2023-04-05T15:32:53.284Z,1014.74
2023-04-05T15:33:53.250Z,1014.78
2023-04-05T15:34:53.247Z,1014.79
2023-04-05T15:35:53.281Z,1014.76
2023-04-05T15:36:53.244Z,1014.73
2023-04-05T15:37:53.254Z,1014.71
2023-04-05T15:38:53.245Z,1014.73
2023-04-05T15:39:53.262Z,1014.69
2023-04-05T15:40:53.257Z,1014.68
2023-04-05T15:41:53.262Z,1014.70
2023-04-05T15:42:53.252Z,1014.71
2023-04-05T15:43:53.309Z,1014.66
2023-04-05T15:44:53.264Z,1014.65
2023-04-05T15:45:53.325Z,1014.63
2023-04-05T15:46:53.353Z,1014.62
2023-04-05T15:47:53.325Z,1014.65
2023-04-05T15:48:53.304Z,1014.66
2023-04-05T15:49:53.276Z,1014.66
2023-04-05T15:50:53.278Z,1014.66
2023-04-05T15:51:53.288Z,1014.69
2023-04-05T15:52:53.311Z,1014.64
2023-04-05T15:53:53.292Z,1014.66
2023-04-05T15:54:53.325Z,1014.63
2023-04-05T15:55:53.288Z,1014.63
2023-04-05T15:56:53.294Z,1014.62
2023-04-05T15:57:53.291Z,1014.62
2023-04-05T15:58:53.316Z,1014.65
2023-04-05T15:59:53.312Z,1014.61
2023-04-05T16:00:53.314Z,1014.60
2023-04-05T16:12:31.261Z,1014.52
2023-04-05T16:13:31.211Z,1014.52
2023-04-05T16:14:31.212Z,1014.55
2023-04-05T16:15:31.208Z,1014.51
2023-04-05T16:16:38.637Z,1014.54
2023-04-05T16:17:31.335Z,1014.58
2023-04-05T16:18:31.203Z,1014.51
2023-04-05T16:19:31.210Z,1014.49
2023-04-05T16:20:31.198Z,1014.52
2023-04-05T16:21:31.194Z,1014.50
2023-04-05T16:22:31.202Z,1014.47
2023-04-05T16:23:31.193Z,1014.47
2023-04-05T16:24:31.430Z,1014.47
2023-04-05T16:25:31.182Z,1014.43
2023-04-05T16:26:31.192Z,1014.45
2023-04-05T16:27:31.196Z,1014.42
2023-04-05T16:28:31.215Z,1014.45
2023-04-05T16:29:31.189Z,1014.41
2023-04-05T16:30:31.181Z,1014.43